createdAt,value
2019-04-21T00:00:24.199Z,1012.87
2019-04-21T00:01:22.553Z,1012.93
2019-04-21T00:02:29.833Z,1012.86
2019-04-21T00:03:27.552Z,1012.83
2019-04-21T00:04:33.156Z,1012.89
2019-04-21T00:05:38.550Z,1012.84
2019-04-21T00:06:41.105Z,1012.85
2019-04-21T00:07:45.363Z,1012.83
2019-04-21T00:08:41.776Z,1012.80
2019-04-21T00:09:48.322Z,1012.82
2019-04-21T00:10:47.928Z,1012.86
2019-04-21T00:11:40.852Z,1012.89
2019-04-21T00:12:41.885Z,1012.83
2019-04-21T00:13:41.762Z,1012.86
2019-04-21T00:14:35.801Z,1012.86
2019-04-21T00:15:33.152Z,1012.86
2019-04-21T00:16:32.120Z,1012.81
2019-04-21T00:17:24.965Z,1012.76
2019-04-21T00:18:23.371Z,1012.82
2019-04-21T00:19:28.091Z,1012.79
2019-04-21T00:20:30.966Z,1012.80
2019-04-21T00:21:32.350Z,1012.73
2019-04-21T00:22:38.077Z,1012.77
2019-04-21T00:23:41.274Z,1012.72
2019-04-21T00:24:37.487Z,1012.79
2019-04-21T00:25:38.847Z,1012.74
2019-04-21T00:26:36.394Z,1012.71
2019-04-21T00:27:38.613Z,1012.67
2019-04-21T00:28:42.071Z,1012.67
2019-04-21T00:30:44.223Z,1012.64
2019-04-21T00:31:38.146Z,1012.63
2019-04-21T00:32:38.144Z,1012.63
2019-04-21T00:33:28.243Z,1012.65
2019-04-21T00:34:23.727Z,1012.65
2019-04-21T00:35:25.800Z,1012.63
2019-04-21T00:36:27.829Z,1012.61
2019-04-21T00:37:44.531Z,1012.64
2019-04-21T00:38:49.275Z,1012.64
2019-04-21T00:40:41.436Z,1012.62
2019-04-21T00:41:43.907Z,1012.61
2019-04-21T00:42:41.568Z,1012.64
2019-04-21T00:43:37.270Z,1012.66
2019-04-21T00:44:35.851Z,1012.62
2019-04-21T00:45:34.907Z,1012.66
2019-04-21T00:46:38.740Z,1012.67
2019-04-21T00:47:46.156Z,1012.62
2019-04-21T00:48:41.304Z,1012.58
2019-04-21T00:49:35.980Z,1012.64
2019-04-21T00:50:53.212Z,1012.53
2019-04-21T00:52:51.284Z,1012.56
2019-04-21T00:53:51.909Z,1012.54
2019-04-21T00:54:49.766Z,1012.57
2019-04-21T00:55:51.615Z,1012.54
2019-04-21T00:56:49.612Z,1012.58
2019-04-21T00:57:51.354Z,1012.56
2019-04-21T00:58:47.736Z,1012.54
2019-04-21T00:59:45.441Z,1012.52
2019-04-21T01:00:46.444Z,1012.53
2019-04-21T01:01:46.248Z,1012.54
2019-04-21T01:02:52.892Z,1012.53
2019-04-21T01:03:45.696Z,1012.50
2019-04-21T01:04:43.023Z,1012.50
2019-04-21T01:05:48.367Z,1012.49
2019-04-21T01:06:43.169Z,1012.46
2019-04-21T01:07:42.304Z,1012.49
2019-04-21T01:08:44.106Z,1012.45
2019-04-21T01:09:39.867Z,1012.45
2019-04-21T01:10:37.399Z,1012.47
2019-04-21T01:11:47.355Z,1012.48
2019-04-21T01:12:44.493Z,1012.46
2019-04-21T01:13:45.555Z,1012.44
2019-04-21T01:14:49.658Z,1012.39
2019-04-21T01:15:51.553Z,1012.44
2019-04-21T01:16:49.798Z,1012.46
2019-04-21T01:17:40.825Z,1012.45
2019-04-21T01:18:44.023Z,1012.42
2019-04-21T01:19:41.233Z,1012.41
2019-04-21T01:20:22.684Z,1012.42
2019-04-21T01:21:21.654Z,1012.43
2019-04-21T01:22:21.622Z,1012.44
2019-04-21T01:23:21.628Z,1012.44
2019-04-21T01:24:28.598Z,1012.42
2019-04-21T01:25:30.186Z,1012.43
2019-04-21T01:26:33.798Z,1012.47
2019-04-21T01:27:42.237Z,1012.44
2019-04-21T01:28:43.888Z,1012.49
2019-04-21T01:30:43.095Z,1012.43
2019-04-21T01:31:36.300Z,1012.41
2019-04-21T01:32:46.855Z,1012.43
2019-04-21T01:33:49.016Z,1012.44
2019-04-21T01:34:39.410Z,1012.40
2019-04-21T01:35:44.228Z,1012.40
2019-04-21T01:36:41.564Z,1012.47
2019-04-21T01:37:43.823Z,1012.46
2019-04-21T01:38:48.136Z,1012.40
2019-04-21T01:39:51.511Z,1012.42
2019-04-21T01:40:43.326Z,1012.39
2019-04-21T01:41:45.060Z,1012.38
2019-04-21T01:42:43.113Z,1012.40
2019-04-21T01:43:43.868Z,1012.33
2019-04-21T01:44:43.039Z,1012.31
2019-04-21T01:45:38.585Z,1012.29
2019-04-21T01:46:42.812Z,1012.27
2019-04-21T01:47:40.653Z,1012.26
2019-04-21T01:48:34.478Z,1012.26
2019-04-21T01:49:29.552Z,1012.24
2019-04-21T01:50:42.673Z,1012.26
2019-04-21T01:51:45.414Z,1012.27
2019-04-21T01:52:54.233Z,1012.31
2019-04-21T01:53:45.681Z,1012.26
2019-04-21T01:54:45.525Z,1012.28
2019-04-21T01:55:46.727Z,1012.28
2019-04-21T01:56:38.679Z,1012.27
2019-04-21T01:57:37.525Z,1012.26
2019-04-21T01:58:34.091Z,1012.28
2019-04-21T01:59:34.930Z,1012.28
2019-04-21T02:00:41.117Z,1012.29
2019-04-21T02:01:39.202Z,1012.29
2019-04-21T02:02:44.362Z,1012.29
2019-04-21T02:05:00.744Z,1012.26
2019-04-21T02:05:43.956Z,1012.24
2019-04-21T02:06:45.585Z,1012.24
2019-04-21T02:07:47.417Z,1012.27
2019-04-21T02:08:38.884Z,1012.27
2019-04-21T02:09:46.429Z,1012.34
2019-04-21T02:10:46.236Z,1012.29
2019-04-21T02:11:43.425Z,1012.28
2019-04-21T02:12:48.329Z,1012.29
2019-04-21T02:13:50.303Z,1012.25
2019-04-21T02:14:45.846Z,1012.26
2019-04-21T02:15:46.710Z,1012.24
2019-04-21T02:16:40.453Z,1012.23
2019-04-21T02:17:45.881Z,1012.29
2019-04-21T02:18:41.566Z,1012.21
2019-04-21T02:19:36.351Z,1012.26
2019-04-21T02:20:34.493Z,1012.17
2019-04-21T02:21:41.028Z,1012.17
2019-04-21T02:23:01.935Z,1012.21
2019-04-21T02:23:50.321Z,1012.18
2019-04-21T02:24:51.633Z,1012.17
2019-04-21T02:25:44.221Z,1012.20
2019-04-21T02:26:44.385Z,1012.21
2019-04-21T02:27:42.969Z,1012.18
2019-04-21T02:29:47.138Z,1012.20
2019-04-21T02:31:00.676Z,1012.13
2019-04-21T02:32:00.404Z,1012.16
2019-04-21T02:33:55.909Z,1012.13
2019-04-21T02:39:00.263Z,1012.15
2019-04-21T02:39:57.389Z,1012.10
2019-04-21T02:42:05.484Z,1012.14
2019-04-21T02:42:56.004Z,1012.12
2019-04-21T02:44:51.733Z,1012.12
2019-04-21T02:45:56.330Z,1012.16
2019-04-21T02:47:59.209Z,1012.11
2019-04-21T02:48:56.430Z,1012.06
2019-04-21T02:50:47.290Z,1012.06
2019-04-21T02:51:54.374Z,1012.03
2019-04-21T02:52:58.131Z,1012.03
2019-04-21T02:54:11.931Z,1011.95
2019-04-21T02:55:51.192Z,1012.01
2019-04-21T02:57:01.361Z,1011.93
2019-04-21T02:57:59.393Z,1011.94
2019-04-21T02:59:59.573Z,1011.97
2019-04-21T03:01:18.745Z,1011.97
2019-04-21T03:01:59.225Z,1011.91
2019-04-21T03:03:16.008Z,1011.87
2019-04-21T03:03:52.919Z,1011.86
2019-04-21T03:04:55.289Z,1011.94
2019-04-21T03:05:51.179Z,1011.94
2019-04-21T03:06:56.382Z,1011.86
2019-04-21T03:08:00.633Z,1011.88
2019-04-21T03:09:03.433Z,1011.78
2019-04-21T03:10:53.304Z,1011.86
2019-04-21T03:12:01.553Z,1011.86
2019-04-21T03:12:45.884Z,1011.81
2019-04-21T03:14:01.130Z,1011.80
2019-04-21T03:16:42.563Z,1011.77
2019-04-21T03:17:57.488Z,1011.79
2019-04-21T03:19:06.670Z,1011.80
2019-04-21T03:20:54.847Z,1011.69
2019-04-21T03:21:57.480Z,1011.67
2019-04-21T03:22:57.634Z,1011.70
2019-04-21T03:25:50.320Z,1011.70
2019-04-21T03:27:01.401Z,1011.61
2019-04-21T03:28:00.787Z,1011.59
2019-04-21T03:28:54.515Z,1011.60
2019-04-21T03:29:57.099Z,1011.60
2019-04-21T03:36:19.020Z,1011.57
2019-04-21T03:38:51.071Z,1011.52
2019-04-21T03:40:54.962Z,1011.57
2019-04-21T03:41:59.758Z,1011.63
2019-04-21T03:42:53.053Z,1011.57
2019-04-21T03:43:54.740Z,1011.59
2019-04-21T03:44:58.416Z,1011.61
2019-04-21T03:47:02.188Z,1011.58
2019-04-21T03:47:53.547Z,1011.63
2019-04-21T03:48:51.840Z,1011.59
2019-04-21T03:49:54.617Z,1011.54
2019-04-21T03:50:56.217Z,1011.61
2019-04-21T03:51:54.908Z,1011.60
2019-04-21T03:52:53.324Z,1011.55
2019-04-21T03:53:45.947Z,1011.58
2019-04-21T03:54:54.126Z,1011.61
2019-04-21T03:56:06.792Z,1011.56
2019-04-21T03:57:11.398Z,1011.56
2019-04-21T03:58:10.696Z,1011.62
2019-04-21T03:59:55.334Z,1011.52
2019-04-21T04:01:57.799Z,1011.66
2019-04-21T04:02:55.259Z,1011.62
2019-04-21T04:04:06.745Z,1011.65
2019-04-21T04:04:53.568Z,1011.61
2019-04-21T04:06:55.565Z,1011.61
2019-04-21T04:08:09.443Z,1011.62
2019-04-21T04:08:59.026Z,1011.55
2019-04-21T04:09:52.360Z,1011.55
2019-04-21T04:11:06.792Z,1011.58
2019-04-21T04:12:05.094Z,1011.62
2019-04-21T04:12:52.647Z,1011.58
2019-04-21T04:13:56.006Z,1011.61
2019-04-21T04:14:50.222Z,1011.59
2019-04-21T04:16:59.403Z,1011.61
2019-04-21T04:17:46.197Z,1011.62
2019-04-21T04:19:46.701Z,1011.62
2019-04-21T04:20:51.681Z,1011.64
2019-04-21T04:21:58.513Z,1011.64
2019-04-21T04:22:56.519Z,1011.61
2019-04-21T04:23:51.365Z,1011.68
2019-04-21T04:25:01.993Z,1011.71
2019-04-21T04:25:53.678Z,1011.69
2019-04-21T04:27:59.456Z,1011.69
2019-04-21T04:28:54.657Z,1011.71
2019-04-21T04:29:51.305Z,1011.73
2019-04-21T04:31:43.965Z,1011.75
2019-04-21T04:39:02.314Z,1011.66
2019-04-21T04:40:05.970Z,1011.75
2019-04-21T04:40:57.783Z,1011.67
2019-04-21T04:42:04.935Z,1011.69
2019-04-21T04:42:55.947Z,1011.74
2019-04-21T04:43:54.639Z,1011.71
2019-04-21T04:45:05.836Z,1011.74
2019-04-21T04:45:55.764Z,1011.77
2019-04-21T04:46:59.709Z,1011.72
2019-04-21T04:47:49.946Z,1011.75
2019-04-21T04:48:59.396Z,1011.80
2019-04-21T04:49:54.973Z,1011.79
2019-04-21T04:50:55.343Z,1011.81
2019-04-21T04:52:45.703Z,1011.81
2019-04-21T04:53:48.855Z,1011.76
2019-04-21T04:54:55.870Z,1011.71
2019-04-21T04:55:46.068Z,1011.77
2019-04-21T04:57:03.229Z,1011.77
2019-04-21T04:59:19.389Z,1011.76
2019-04-21T04:59:53.964Z,1011.76
2019-04-21T05:00:58.162Z,1011.81
2019-04-21T05:03:48.945Z,1011.78
2019-04-21T05:04:55.205Z,1011.74
2019-04-21T05:05:55.617Z,1011.75
2019-04-21T05:07:57.292Z,1011.76
2019-04-21T05:09:11.335Z,1011.69
2019-04-21T05:10:59.054Z,1011.74
2019-04-21T05:12:47.855Z,1011.76
2019-04-21T05:13:58.085Z,1011.69
2019-04-21T05:15:53.713Z,1011.72
2019-04-21T05:16:56.051Z,1011.69
2019-04-21T05:18:56.015Z,1011.72
2019-04-21T05:20:05.443Z,1011.68
2019-04-21T05:20:58.709Z,1011.68
2019-04-21T05:22:05.272Z,1011.68
2019-04-21T05:22:45.901Z,1011.66
2019-04-21T05:23:39.811Z,1011.70
2019-04-21T05:24:38.972Z,1011.68
2019-04-21T05:25:37.758Z,1011.67
2019-04-21T05:26:38.981Z,1011.71
2019-04-21T05:27:36.532Z,1011.74
2019-04-21T05:28:32.700Z,1011.67
2019-04-21T05:29:47.768Z,1011.68
2019-04-21T05:30:47.641Z,1011.66
2019-04-21T05:31:45.082Z,1011.60
2019-04-21T05:32:48.809Z,1011.62
2019-04-21T05:33:49.476Z,1011.57
2019-04-21T05:34:35.948Z,1011.56
2019-04-21T05:35:43.333Z,1011.58
2019-04-21T05:37:36.931Z,1011.51
2019-04-21T05:38:38.871Z,1011.60
2019-04-21T05:39:36.227Z,1011.57
2019-04-21T05:40:34.739Z,1011.57
2019-04-21T05:41:31.378Z,1011.52
2019-04-21T05:42:35.357Z,1011.53
2019-04-21T05:43:43.780Z,1011.55
2019-04-21T05:44:56.768Z,1011.58
2019-04-21T05:45:42.281Z,1011.53
2019-04-21T05:47:49.143Z,1011.56
2019-04-21T05:48:39.715Z,1011.54
2019-04-21T05:49:40.134Z,1011.55
2019-04-21T05:50:38.061Z,1011.58
2019-04-21T05:51:36.430Z,1011.58
2019-04-21T05:52:34.084Z,1011.65
2019-04-21T05:53:42.689Z,1011.64
2019-04-21T05:55:44.544Z,1011.60
2019-04-21T05:56:46.100Z,1011.59
2019-04-21T05:57:43.159Z,1011.65
2019-04-21T05:58:40.623Z,1011.60
2019-04-21T05:59:43.616Z,1011.61
2019-04-21T06:00:59.153Z,1011.60
2019-04-21T06:02:07.235Z,1011.56
2019-04-21T06:02:43.799Z,1011.55
2019-04-21T06:03:44.899Z,1011.59
2019-04-21T06:05:03.054Z,1011.61
2019-04-21T06:05:53.429Z,1011.58
2019-04-21T06:06:55.410Z,1011.58
2019-04-21T06:07:41.483Z,1011.59
2019-04-21T06:09:48.889Z,1011.57
2019-04-21T06:10:48.814Z,1011.61
2019-04-21T06:11:42.446Z,1011.61
2019-04-21T06:12:44.960Z,1011.56
2019-04-21T06:13:53.031Z,1011.63
2019-04-21T06:14:44.912Z,1011.61
2019-04-21T06:15:42.914Z,1011.60
2019-04-21T06:16:53.524Z,1011.59
2019-04-21T06:17:44.467Z,1011.57
2019-04-21T06:18:48.724Z,1011.53
2019-04-21T06:19:52.680Z,1011.57
2019-04-21T06:20:44.492Z,1011.50
2019-04-21T06:21:38.549Z,1011.52
2019-04-21T06:22:36.134Z,1011.53
2019-04-21T06:23:41.986Z,1011.50
2019-04-21T06:25:06.923Z,1011.57
2019-04-21T06:25:54.544Z,1011.50
2019-04-21T06:26:54.813Z,1011.51
2019-04-21T06:27:40.763Z,1011.49
2019-04-21T06:28:47.012Z,1011.47
2019-04-21T06:29:45.201Z,1011.44
2019-04-21T06:30:56.201Z,1011.47
2019-04-21T06:32:52.188Z,1011.50
2019-04-21T06:35:04.256Z,1011.52
2019-04-21T06:36:07.810Z,1011.52
2019-04-21T06:36:45.177Z,1011.50
2019-04-21T06:38:53.864Z,1011.42
2019-04-21T06:39:54.258Z,1011.44
2019-04-21T06:40:42.511Z,1011.47
2019-04-21T06:41:39.777Z,1011.46
2019-04-21T06:42:40.325Z,1011.47
2019-04-21T06:43:48.537Z,1011.48
2019-04-21T06:44:49.121Z,1011.48
2019-04-21T06:45:50.690Z,1011.43
2019-04-21T06:46:43.713Z,1011.43
2019-04-21T06:47:45.130Z,1011.48
2019-04-21T06:48:44.367Z,1011.45
2019-04-21T06:49:41.255Z,1011.47
2019-04-21T06:50:46.110Z,1011.47
2019-04-21T06:51:38.932Z,1011.50
2019-04-21T06:52:51.966Z,1011.54
2019-04-21T06:53:44.382Z,1011.48
2019-04-21T06:54:45.626Z,1011.51
2019-04-21T06:55:38.000Z,1011.43
2019-04-21T06:56:47.890Z,1011.46
2019-04-21T06:57:47.947Z,1011.43
2019-04-21T06:58:35.589Z,1011.48
2019-04-21T06:59:38.385Z,1011.48
2019-04-21T07:00:37.332Z,1011.41
2019-04-21T07:01:43.811Z,1011.48
2019-04-21T07:03:42.489Z,1011.47
2019-04-21T07:04:46.483Z,1011.44
2019-04-21T07:05:48.445Z,1011.46
2019-04-21T07:06:48.208Z,1011.54
2019-04-21T07:07:52.115Z,1011.48
2019-04-21T07:08:51.476Z,1011.53
2019-04-21T07:09:36.410Z,1011.49
2019-04-21T07:10:37.062Z,1011.51
2019-04-21T07:11:39.368Z,1011.48
2019-04-21T07:12:39.364Z,1011.47
2019-04-21T07:13:41.561Z,1011.46
2019-04-21T07:15:43.627Z,1011.50
2019-04-21T07:16:44.949Z,1011.50
2019-04-21T07:17:43.242Z,1011.50
2019-04-21T07:18:42.910Z,1011.50
2019-04-21T07:19:41.267Z,1011.49
2019-04-21T07:20:42.368Z,1011.54
2019-04-21T07:21:43.014Z,1011.44
2019-04-21T07:22:44.680Z,1011.45
2019-04-21T07:23:45.878Z,1011.45
2019-04-21T07:25:00.414Z,1011.42
2019-04-21T07:25:40.851Z,1011.45
2019-04-21T07:26:44.534Z,1011.46
2019-04-21T07:27:43.079Z,1011.43
2019-04-21T07:28:45.515Z,1011.49
2019-04-21T07:29:55.115Z,1011.42
2019-04-21T07:30:48.699Z,1011.40
2019-04-21T07:31:52.135Z,1011.48
2019-04-21T07:32:40.152Z,1011.41
2019-04-21T07:34:38.276Z,1011.48
2019-04-21T07:35:41.191Z,1011.40
2019-04-21T07:36:47.790Z,1011.39
2019-04-21T07:37:46.211Z,1011.39
2019-04-21T07:38:41.179Z,1011.39
2019-04-21T07:39:40.299Z,1011.41
2019-04-21T07:40:33.728Z,1011.46
2019-04-21T07:41:35.062Z,1011.41
2019-04-21T07:42:36.954Z,1011.39
2019-04-21T07:43:33.233Z,1011.42
2019-04-21T07:44:34.939Z,1011.37
2019-04-21T07:45:30.160Z,1011.39
2019-04-21T07:46:30.040Z,1011.39
2019-04-21T07:47:39.607Z,1011.35
2019-04-21T07:48:38.103Z,1011.36
2019-04-21T07:49:40.183Z,1011.36
2019-04-21T07:50:38.189Z,1011.29
2019-04-21T07:51:42.311Z,1011.35
2019-04-21T07:52:42.052Z,1011.34
2019-04-21T07:53:40.661Z,1011.32
2019-04-21T07:54:47.683Z,1011.30
2019-04-21T07:56:26.688Z,1011.28
2019-04-21T07:57:36.746Z,1011.27
2019-04-21T07:58:47.644Z,1011.26
2019-04-21T07:59:48.001Z,1011.24
2019-04-21T08:00:45.369Z,1011.22
2019-04-21T08:01:35.689Z,1011.22
2019-04-21T08:02:46.307Z,1011.23
2019-04-21T08:03:43.860Z,1011.22
2019-04-21T08:04:55.837Z,1011.22
2019-04-21T08:05:43.762Z,1011.19
2019-04-21T08:06:40.547Z,1011.26
2019-04-21T08:07:49.240Z,1011.15
2019-04-21T08:08:34.495Z,1011.18
2019-04-21T08:09:45.261Z,1011.11
2019-04-21T08:10:33.635Z,1011.11
2019-04-21T08:11:38.338Z,1011.09
2019-04-21T08:12:36.232Z,1011.11
2019-04-21T08:13:40.105Z,1011.14
2019-04-21T08:14:38.345Z,1011.14
2019-04-21T08:15:40.243Z,1011.14
2019-04-21T08:16:37.251Z,1011.11
2019-04-21T08:17:36.729Z,1011.08
2019-04-21T08:18:39.947Z,1011.06
2019-04-21T08:19:39.885Z,1011.07
2019-04-21T08:20:38.724Z,1011.03
2019-04-21T08:21:40.915Z,1011.05
2019-04-21T08:22:44.821Z,1011.09
2019-04-21T08:23:39.932Z,1011.03
2019-04-21T08:24:46.866Z,1011.07
2019-04-21T08:25:51.009Z,1011.03
2019-04-21T08:26:46.961Z,1011.05
2019-04-21T08:27:46.449Z,1011.02
2019-04-21T08:28:42.722Z,1011.03
2019-04-21T08:29:42.188Z,1011.00
2019-04-21T08:30:36.235Z,1011.00
2019-04-21T08:31:50.023Z,1010.97
2019-04-21T08:32:51.773Z,1011.00
2019-04-21T08:33:46.283Z,1010.98
2019-04-21T08:34:49.349Z,1010.94
2019-04-21T08:36:35.538Z,1010.90
2019-04-21T08:37:39.525Z,1010.90
2019-04-21T08:38:42.624Z,1010.89
2019-04-21T08:39:49.657Z,1010.91
2019-04-21T08:41:31.365Z,1010.88
2019-04-21T08:42:38.286Z,1010.88
2019-04-21T08:43:42.641Z,1010.87
2019-04-21T08:44:40.094Z,1010.89
2019-04-21T08:45:44.992Z,1010.89
2019-04-21T08:46:39.876Z,1010.88
2019-04-21T08:47:40.224Z,1010.94
2019-04-21T08:48:37.991Z,1010.91
2019-04-21T08:49:39.190Z,1010.89
2019-04-21T08:50:38.930Z,1010.85
2019-04-21T08:53:42.980Z,1010.80
2019-04-21T08:54:40.964Z,1010.80
2019-04-21T08:55:45.053Z,1010.81
2019-04-21T08:56:37.202Z,1010.79
2019-04-21T08:57:46.414Z,1010.75
2019-04-21T08:58:42.554Z,1010.73
2019-04-21T08:59:36.341Z,1010.72
2019-04-21T09:00:38.448Z,1010.72
2019-04-21T09:01:38.581Z,1010.75
2019-04-21T09:02:41.098Z,1010.71
2019-04-21T09:03:36.115Z,1010.75
2019-04-21T09:04:33.506Z,1010.72
2019-04-21T09:05:37.828Z,1010.69
2019-04-21T09:06:54.159Z,1010.74
2019-04-21T09:07:41.683Z,1010.67
2019-04-21T09:08:39.273Z,1010.69
2019-04-21T09:09:35.268Z,1010.72
2019-04-21T09:10:35.623Z,1010.62
2019-04-21T09:12:34.633Z,1010.58
2019-04-21T09:13:37.117Z,1010.63
2019-04-21T09:14:36.563Z,1010.58
2019-04-21T09:15:34.983Z,1010.58
2019-04-21T09:16:31.148Z,1010.54
2019-04-21T09:17:31.848Z,1010.55
2019-04-21T09:18:28.403Z,1010.50
2019-04-21T09:19:47.066Z,1010.51
2019-04-21T09:20:40.155Z,1010.52
2019-04-21T09:21:42.299Z,1010.52
2019-04-21T09:22:37.820Z,1010.50
2019-04-21T09:23:36.479Z,1010.54
2019-04-21T09:24:35.162Z,1010.52
2019-04-21T09:25:40.605Z,1010.53
2019-04-21T09:26:36.984Z,1010.50
2019-04-21T09:27:35.662Z,1010.49
2019-04-21T09:28:33.126Z,1010.48
2019-04-21T09:29:26.492Z,1010.43
2019-04-21T09:30:17.470Z,1010.39
2019-04-21T09:31:23.952Z,1010.35
2019-04-21T09:32:21.711Z,1010.34
2019-04-21T09:33:16.211Z,1010.33
2019-04-21T09:34:23.886Z,1010.42
2019-04-21T09:35:18.621Z,1010.33
2019-04-21T09:36:21.171Z,1010.27
2019-04-21T09:37:28.811Z,1010.20
2019-04-21T09:38:27.689Z,1010.27
2019-04-21T09:39:20.377Z,1010.30
2019-04-21T09:40:27.432Z,1010.36
2019-04-21T09:41:20.369Z,1010.34
2019-04-21T09:42:18.426Z,1010.27
2019-04-21T09:43:27.299Z,1010.35
2019-04-21T09:44:24.920Z,1010.28
2019-04-21T09:45:17.617Z,1010.26
2019-04-21T09:46:16.253Z,1010.25
2019-04-21T09:47:21.225Z,1010.26
2019-04-21T09:48:19.508Z,1010.35
2019-04-21T09:49:22.074Z,1010.39
2019-04-21T09:50:17.341Z,1010.23
2019-04-21T09:51:16.012Z,1010.19
2019-04-21T09:52:21.046Z,1010.18
2019-04-21T09:53:24.869Z,1010.19
2019-04-21T09:54:22.889Z,1010.24
2019-04-21T09:55:20.680Z,1010.21
2019-04-21T09:56:19.572Z,1010.17
2019-04-21T09:57:27.603Z,1010.19
2019-04-21T09:58:23.982Z,1010.22
2019-04-21T09:59:23.665Z,1010.26
2019-04-21T10:00:21.085Z,1010.17
2019-04-21T10:01:22.803Z,1010.15
2019-04-21T10:02:25.314Z,1010.13
2019-04-21T10:03:18.005Z,1010.20
2019-04-21T10:04:16.448Z,1010.15
2019-04-21T10:05:16.887Z,1010.17
2019-04-21T10:06:17.447Z,1010.18
2019-04-21T10:07:25.619Z,1010.07
2019-04-21T10:08:16.878Z,1010.20
2019-04-21T10:09:19.395Z,1010.30
2019-04-21T10:10:17.138Z,1010.12
2019-04-21T10:11:16.506Z,1010.09
2019-04-21T10:12:16.259Z,1010.06
2019-04-21T10:13:17.048Z,1010.07
2019-04-21T10:14:15.801Z,1010.05
2019-04-21T10:15:16.516Z,1009.99
2019-04-21T10:16:15.733Z,1009.99
2019-04-21T10:17:15.717Z,1010.01
2019-04-21T10:18:15.714Z,1009.98
2019-04-21T10:19:15.721Z,1010.00
2019-04-21T10:20:17.040Z,1009.99
2019-04-21T10:21:15.706Z,1010.01
2019-04-21T10:22:17.040Z,1009.95
2019-04-21T10:23:15.717Z,1009.99
2019-04-21T10:24:15.987Z,1009.96
2019-04-21T10:25:16.638Z,1009.96
2019-04-21T10:26:16.802Z,1009.92
2019-04-21T10:27:16.980Z,1009.94
2019-04-21T10:28:16.761Z,1009.98
2019-04-21T10:29:22.739Z,1009.90
2019-04-21T10:30:16.582Z,1009.85
2019-04-21T10:31:16.726Z,1009.90
2019-04-21T10:32:18.667Z,1009.84
2019-04-21T10:33:16.734Z,1009.87
2019-04-21T10:34:16.895Z,1009.89
2019-04-21T10:35:18.156Z,1009.78
2019-04-21T10:36:15.570Z,1009.74
2019-04-21T10:37:16.646Z,1009.79
2019-04-21T10:38:26.364Z,1009.76
2019-04-21T10:39:15.777Z,1009.70
2019-04-21T10:40:15.872Z,1009.71
2019-04-21T10:41:15.453Z,1009.75
2019-04-21T10:42:15.573Z,1009.69
2019-04-21T10:43:19.070Z,1009.71
2019-04-21T10:44:16.891Z,1009.70
2019-04-21T10:45:16.878Z,1009.67
2019-04-21T10:46:15.409Z,1009.66
2019-04-21T10:47:16.559Z,1009.69
2019-04-21T10:48:16.762Z,1009.72
2019-04-21T10:49:15.362Z,1009.63
2019-04-21T10:50:16.277Z,1009.67
2019-04-21T10:51:15.413Z,1009.61
2019-04-21T10:52:15.350Z,1009.65
2019-04-21T10:53:16.607Z,1009.62
2019-04-21T10:54:15.830Z,1009.67
2019-04-21T10:55:32.032Z,1009.63
2019-04-21T10:56:25.126Z,1009.54
2019-04-21T10:57:16.640Z,1009.61
2019-04-21T10:58:16.219Z,1009.54
2019-04-21T10:59:16.235Z,1009.57
2019-04-21T11:00:16.033Z,1009.57
2019-04-21T11:01:15.263Z,1009.59
2019-04-21T11:02:15.223Z,1009.59
2019-04-21T11:03:15.220Z,1009.49
2019-04-21T11:04:21.843Z,1009.52
2019-04-21T11:05:16.480Z,1009.52
2019-04-21T11:06:16.762Z,1009.48
2019-04-21T11:07:18.124Z,1009.48
2019-04-21T11:08:22.762Z,1009.45
2019-04-21T11:09:16.145Z,1009.39
2019-04-21T11:10:16.166Z,1009.47
2019-04-21T11:11:16.249Z,1009.41
2019-04-21T11:12:15.567Z,1009.40
2019-04-21T11:13:15.097Z,1009.42
2019-04-21T11:14:15.479Z,1009.27
2019-04-21T11:15:15.092Z,1009.36
2019-04-21T11:16:15.145Z,1009.34
2019-04-21T11:17:16.352Z,1009.32
2019-04-21T11:18:15.710Z,1009.38
2019-04-21T11:19:15.940Z,1009.44
2019-04-21T11:20:15.104Z,1009.32
2019-04-21T11:21:15.054Z,1009.28
2019-04-21T11:22:15.050Z,1009.30
2019-04-21T11:23:16.659Z,1009.29
2019-04-21T11:24:16.452Z,1009.21
2019-04-21T11:25:15.813Z,1009.24
2019-04-21T11:26:16.022Z,1009.27
2019-04-21T11:27:15.078Z,1009.22
2019-04-21T11:28:14.984Z,1009.25
2019-04-21T11:29:15.025Z,1009.20
2019-04-21T11:30:15.741Z,1009.15
2019-04-21T11:31:15.418Z,1009.13
2019-04-21T11:32:15.123Z,1009.14
2019-04-21T11:33:15.396Z,1009.18
2019-04-21T11:34:15.460Z,1009.09
2019-04-21T11:35:15.107Z,1009.07
2019-04-21T11:36:15.447Z,1009.05
2019-04-21T11:37:14.854Z,1009.00
2019-04-21T11:38:19.892Z,1009.08
2019-04-21T11:39:28.474Z,1009.01
2019-04-21T11:40:18.011Z,1009.05
2019-04-21T11:41:16.016Z,1009.02
2019-04-21T11:42:15.564Z,1009.07
2019-04-21T11:43:15.749Z,1009.02
2019-04-21T11:44:16.198Z,1009.02
2019-04-21T11:45:14.755Z,1008.95
2019-04-21T11:46:16.148Z,1008.94
2019-04-21T11:47:14.720Z,1008.97
2019-04-21T11:48:14.717Z,1008.98
2019-04-21T11:49:15.827Z,1008.93
2019-04-21T11:50:14.994Z,1008.88
2019-04-21T11:51:15.232Z,1008.92
2019-04-21T11:52:14.684Z,1009.01
2019-04-21T11:53:14.838Z,1009.00
2019-04-21T11:54:15.058Z,1008.91
2019-04-21T11:55:14.679Z,1008.93
2019-04-21T11:56:14.760Z,1008.90
2019-04-21T11:57:20.977Z,1008.85
2019-04-21T11:58:15.920Z,1008.83
2019-04-21T11:59:15.538Z,1008.86
2019-04-21T12:00:15.745Z,1008.83
2019-04-21T12:01:15.764Z,1008.85
2019-04-21T12:02:15.220Z,1008.82
2019-04-21T12:03:15.720Z,1008.78
2019-04-21T12:04:16.105Z,1008.84
2019-04-21T12:05:15.150Z,1008.81
2019-04-21T12:06:15.445Z,1008.79
2019-04-21T12:07:15.446Z,1008.76
2019-04-21T12:08:24.495Z,1008.72
2019-04-21T12:09:14.752Z,1008.79
2019-04-21T12:10:15.538Z,1008.71
2019-04-21T12:11:15.870Z,1008.81
2019-04-21T12:12:14.970Z,1008.80
2019-04-21T12:13:14.436Z,1008.76
2019-04-21T12:14:14.485Z,1008.72
2019-04-21T12:15:14.415Z,1008.69
2019-04-21T12:16:14.963Z,1008.70
2019-04-21T12:17:14.447Z,1008.66
2019-04-21T12:18:15.525Z,1008.68
2019-04-21T12:19:14.641Z,1008.67
2019-04-21T12:20:14.798Z,1008.66
2019-04-21T12:21:15.620Z,1008.67
2019-04-21T12:22:21.591Z,1008.58
2019-04-21T12:23:14.494Z,1008.52
2019-04-21T12:24:15.217Z,1008.56
2019-04-21T12:25:15.424Z,1008.54
2019-04-21T12:26:14.303Z,1008.53
2019-04-21T12:27:14.326Z,1008.49
2019-04-21T12:28:14.366Z,1008.41
2019-04-21T12:29:14.640Z,1008.48
2019-04-21T12:30:15.533Z,1008.38
2019-04-21T12:31:14.252Z,1008.50
2019-04-21T12:32:14.256Z,1008.44
2019-04-21T12:33:14.280Z,1008.35
2019-04-21T12:34:14.225Z,1008.30
2019-04-21T12:35:15.655Z,1008.32
2019-04-21T12:36:14.232Z,1008.34
2019-04-21T12:37:15.086Z,1008.34
2019-04-21T12:38:14.197Z,1008.27
2019-04-21T12:39:14.896Z,1008.29
2019-04-21T12:40:14.755Z,1008.24
2019-04-21T12:41:14.880Z,1008.27
2019-04-21T12:42:14.507Z,1008.27
2019-04-21T12:43:14.719Z,1008.26
2019-04-21T12:44:15.039Z,1008.27
2019-04-21T12:45:15.201Z,1008.27
2019-04-21T12:46:14.132Z,1008.22
2019-04-21T12:47:14.293Z,1008.19
2019-04-21T12:48:14.108Z,1008.15
2019-04-21T12:49:14.053Z,1008.14
2019-04-21T12:50:14.848Z,1008.14
2019-04-21T12:51:15.456Z,1008.19
2019-04-21T12:52:14.020Z,1008.13
2019-04-21T12:53:15.676Z,1008.09
2019-04-21T12:54:15.341Z,1008.11
2019-04-21T12:55:13.992Z,1008.08
2019-04-21T12:56:13.974Z,1008.08
2019-04-21T12:57:13.972Z,1008.08
2019-04-21T12:58:15.188Z,1008.00
2019-04-21T12:59:14.929Z,1007.97
2019-04-21T13:00:15.142Z,1008.00
2019-04-21T13:01:14.685Z,1008.00
2019-04-21T13:02:13.939Z,1007.98
2019-04-21T13:03:14.179Z,1008.00
2019-04-21T13:04:13.891Z,1007.90
2019-04-21T13:05:13.875Z,1007.86
2019-04-21T13:06:14.032Z,1007.87
2019-04-21T13:07:15.289Z,1007.85
2019-04-21T13:08:13.877Z,1007.91
2019-04-21T13:09:16.748Z,1007.86
2019-04-21T13:10:16.120Z,1007.87
2019-04-21T13:11:14.936Z,1007.85
2019-04-21T13:12:15.138Z,1007.80
2019-04-21T13:13:14.378Z,1007.85
2019-04-21T13:14:13.817Z,1007.89
2019-04-21T13:15:13.775Z,1007.83